• Join FlightAware (Why Join?)
  • Login
  • US Flag 
Gobble Gobble! 
10:05AM EST


 

Airport Tracker/Info


-or-


 

Live Flight TrackerFlight Track Log ✈ CPZ5750 ✈ 06-Jul-2013 ✈ KMSP - KALB

Flight Track Log - Related Links

Times and Time Zones

All times are in EDT time to prevent confusion due to time zone crossing. See the CPZ5750 flight status page for this flight to view local times or setup timezone preferences in your user account.

Time Position Orientation Groundspeed Altitude Reporting Facility
EDT Latitude Longitude Course Direction KTS MPH feet Rate Location/Type
04:29PM 44.8833 -93.1667 70° East 148 170 2,100  Level Minneapolis TRACON
04:30PM 44.8667 -93.1167 115° Southeast 207 238 2,900 1,500 Climbing Minneapolis TRACON
04:31PM 44.9000 -93.0333 61° Northeast 283 326 4,900 2,100 Climbing Minneapolis TRACON
04:32PM 45.0448 -92.6016 68° East  Level FlightAware Approximate
04:32PM 44.9667 -93.0167 10° North 312 359 7,000  Level Minneapolis TRACON
04:33PM 45.0883 -92.4468 70° East  Level FlightAware Approximate
04:33PM 45.0500 -92.9667 23° Northeast 315 362 10,300  Level Minneapolis TRACON
04:34PM 45.1237 -92.2888 70° East  Level FlightAware Approximate
04:34PM 45.1217 -92.7883 60° Northeast 375 432 12,600  Level Minneapolis Center
04:35PM 45.1694 -92.6561 63° Northeast 378 435 15,100 2,220 Climbing Minneapolis Center
04:36PM 45.2189 -92.5219 62° Northeast 382 440 17,200 1,980 Climbing Minneapolis Center
04:37PM 45.2683 -92.3822 63° Northeast 395 455 19,300 1,740 Climbing Minneapolis Center
04:38PM 45.3128 -92.2344 67° East 403 464 20,900 1,380 Climbing Minneapolis Center
04:39PM 45.3325 -92.0686 80° East 419 482 22,200 1,440 Climbing Minneapolis Center
04:40PM 45.3619 -91.8675 78° East 431 496 23,900 1,320 Climbing Minneapolis Center
04:41PM 45.3842 -91.6967 79° East 438 504 25,000 1,020 Climbing Minneapolis Center
04:43PM 45.4075 -91.5228 79° East 442 509 26,100 1,020 Climbing Minneapolis Center
04:44PM 45.4289 -91.3464 80° East 448 516 27,200 960 Climbing Minneapolis Center
04:45PM 45.4517 -91.1703 79° East 451 519 28,100 720 Climbing Minneapolis Center
04:46PM 45.4647 -90.9908 84° East 453 521 28,700 780 Climbing Minneapolis Center
04:47PM 45.4008 -90.7844 114° Southeast 466 536 29,700 1,020 Climbing Minneapolis Center
04:48PM 45.3481 -90.6153 114° Southeast 469 540 30,900 1,200 Climbing Minneapolis Center
04:49PM 45.2969 -90.4497 114° Southeast 465 535 32,200 1,020 Climbing Minneapolis Center
04:50PM 45.2903 -90.2761 93° East 448 516 33,100 840 Climbing Minneapolis Center
04:51PM 45.3067 -90.1008 82° East 450 518 34,000 900 Climbing Minneapolis Center
04:52PM 45.3236 -89.8908 83° East 449 517 35,000 480 Climbing Minneapolis Center
04:53PM 45.3128 -89.7136 95° East 456 525 35,000  Level Minneapolis Center
04:54PM 45.2950 -89.5383 98° East 453 521 35,000  Level Minneapolis Center
04:55PM 45.2814 -89.3961 98° East 456 525 35,000  Level Minneapolis Center
04:56PM 45.2603 -89.1853 98° East 453 521 35,000  Level Minneapolis Center
04:57PM 45.2417 -89.0078 98° East 456 525 35,000  Level Minneapolis Center
04:58PM 45.2208 -88.8017 98° East 446 513 35,000  Level Minneapolis Center
04:59PM 45.2025 -88.6300 99° East 444 511 35,000  Level Minneapolis Center
05:00PM 45.1817 -88.4494 99° East 442 509 35,000  Level Minneapolis Center
05:01PM 45.1636 -88.2789 98° East 440 506 35,000  Level Minneapolis Center
05:02PM 45.1453 -88.1094 99° East 437 503 35,000  Level Minneapolis Center
05:03PM 45.1292 -87.9403 98° East 436 502 35,000  Level Minneapolis Center
05:04PM 45.1111 -87.7706 99° East 438 504 35,000  Level Minneapolis Center
05:05PM 45.0928 -87.5986 99° East 441 507 35,000  Level Minneapolis Center
05:06PM 45.0744 -87.4258 98° East 445 512 35,000  Level Minneapolis Center
05:07PM 45.0525 -87.2161 98° East 450 518 35,000  Level Minneapolis Center
05:08PM 45.0339 -87.0411 98° East 451 519 35,000  Level Minneapolis Center
05:09PM 45.0150 -86.8644 99° East 454 522 35,000  Level Minneapolis Center
05:10PM 44.9972 -86.7086 99° East 461 531 35,000  Level Minneapolis Center
05:11PM 44.9717 -86.4864 99° East 473 544 35,000  Level Minneapolis Center
05:12PM 44.9511 -86.3025 99° East 474 545 35,000  Level Minneapolis Center
05:13PM 44.9289 -86.1175 100° East 477 549 35,000  Level Minneapolis Center
05:14PM 44.9075 -85.9333 99° East 477 549 35,000  Level Minneapolis Center
05:16PM 44.8847 -85.7461 100° East 481 554 35,000  Level Minneapolis Center
05:17PM 44.8528 -85.4828 100° East 483 556 35,000  Level Minneapolis Center
05:18PM 44.8297 -85.2956 100° East 484 557 35,000  Level Minneapolis Center
05:19PM 44.8069 -85.1103 100° East 483 556 35,000  Level Minneapolis Center
05:20PM 44.7831 -84.9239 100° East 483 556 35,000  Level Minneapolis Center
05:21PM 44.7589 -84.7361 100° East 487 560 35,000  Level Minneapolis Center
05:22PM 44.7342 -84.5500 101° East 486 559 35,000  Level Minneapolis Center
05:23PM 44.7097 -84.3614 100° East 490 564 35,000  Level Minneapolis Center
05:24PM 44.6794 -84.1361 101° East 491 565 35,000  Level Minneapolis Center
05:25PM 44.6528 -83.9489 101° East 490 564 35,000  Level Minneapolis Center
05:26PM 44.6264 -83.7589 101° East 493 567 35,000  Level Minneapolis Center
05:27PM 44.6006 -83.5719 101° East 492 566 35,000  Level Minneapolis Center
05:28PM 44.5742 -83.3831 101° East 493 567 35,000  Level Minneapolis Center
05:29PM 44.5464 -83.1942 102° East 495 570 35,000  Level Minneapolis Center
05:30PM 44.5200 -83.0067 101° East 493 567 35,000  Level Minneapolis Center
05:31PM 44.4853 -82.7800 102° East 497 572 35,000  Level Minneapolis Center
05:32PM 44.4578 -82.5897 101° East 498 573 35,000  Level Minneapolis Center
05:33PM 44.4292 -82.4008 102° East 499 574 35,000  Level Minneapolis Center
05:34PM 44.4000 -82.2667 107° East 500 575 35,000  Level Toronto Center
05:35PM 44.3667 -82.1000 106° East 500 575 35,000  Level Toronto Center
05:36PM 44.3500 -81.9000 97° East 500 575 35,000  Level Toronto Center
05:37PM 44.3167 -81.7000 103° East 500 575 35,000  Level Toronto Center
05:38PM 44.2833 -81.5167 104° East 500 575 35,000  Level Toronto Center
05:39PM 44.2500 -81.3333 104° East 500 575 35,000  Level Toronto Center
05:40PM 44.2167 -81.1500 104° East 500 575 35,000  Level Toronto Center
05:41PM 44.1833 -80.9500 103° East 500 575 35,000  Level Toronto Center
05:42PM 44.1667 -80.7667 97° East 500 575 35,000  Level Toronto Center
05:43PM 44.1333 -80.5833 104° East 500 575 35,000  Level Toronto Center
05:44PM 44.1000 -80.4000 104° East 500 575 35,000  Level Toronto Center
05:45PM 44.0667 -80.2167 104° East 500 575 35,000  Level Toronto Center
05:46PM 44.0333 -80.0333 104° East 500 575 35,000  Level Toronto Center
05:47PM 44.0000 -79.8333 103° East 500 575 35,000  Level Toronto Center
05:48PM 43.9667 -79.6500 104° East 500 575 35,000  Level Toronto Center
05:49PM 43.9333 -79.4667 104° East 500 575 35,000  Level Toronto Center
05:50PM 43.9000 -79.2667 103° East 500 575 35,000  Level Toronto Center
05:51PM 43.8667 -79.0833 104° East 500 575 35,000  Level Toronto Center
05:52PM 43.8333 -78.9000 104° East 500 575 35,000  Level Toronto Center
05:53PM 43.8000 -78.7167 104° East 500 575 35,000  Level Toronto Center
05:54PM 43.7667 -78.5167 103° East 500 575 35,000  Level Toronto Center
05:55PM 43.7167 -78.3333 111° Southeast 500 575 35,000  Level Toronto Center
05:56PM 43.6833 -78.1500 104° East 500 575 35,000  Level Toronto Center
05:57PM 43.6500 -77.9667 104° East 500 575 35,000  Level Toronto Center
05:58PM 43.6167 -77.7833 104° East 500 575 35,000  Level Toronto Center
05:59PM 43.5994 -77.6881 104° East 492 566 35,000  Level Cleveland Center
06:00PM 43.5614 -77.5094 106° East 492 566 35,000 -780 Level Cleveland Center
06:01PM 43.4958 -77.1892 106° East 469 540 33,000 -1,740 Descending Boston Center
06:02PM 43.4561 -76.9917 105° East 482 555 30,400 -2,040 Descending Boston Center
06:03PM 43.4194 -76.8086 105° East 487 560 29,000 -720 Descending Boston Center
06:04PM 43.3825 -76.6258 105° East 487 560 29,000  Level Boston Center
06:05PM 43.3431 -76.4461 107° East 487 560 29,000 -240 Level Boston Center
06:06PM 43.3056 -76.2639 106° East 487 560 28,600 -660 Descending Boston Center
06:07PM 43.2675 -76.0875 106° East 487 560 27,700 -900 Descending Boston Center
06:08PM 43.2311 -75.9142 106° East 482 555 26,800 -900 Descending Boston Center
06:09PM 43.1906 -75.7408 108° East 482 555 26,000 -780 Descending Boston Center
06:10PM 43.1536 -75.5708 107° East 476 548 25,300 -600 Descending Boston Center
06:11PM 43.1239 -75.4300 106° East 471 542 24,800 -1,380 Descending Boston Center
06:12PM 43.0808 -75.2458 108° East 466 536 22,600 -2,280 Descending Boston Center
06:13PM 43.0469 -75.0853 106° East 453 521 20,300 -2,280 Descending Boston Center
06:14PM 43.0128 -74.9361 107° East 435 501 18,100 -2,340 Descending Boston Center
06:15PM 42.9747 -74.7700 107° East 422 486 15,700 -2,160 Descending Boston Center
06:16PM 42.9461 -74.6411 107° East 406 467 13,800 -2,100 Descending Boston Center
06:17PM 42.9092 -74.4869 108° East 394 453 11,600 -1,740 Descending Boston Center
06:18PM 42.8817 -74.3953 112° Southeast 378 435 10,400 -1,440 Descending Boston Center
06:19PM 42.8131 -74.2656 126° Southeast 339 390 8,800 -1,500 Descending Boston Center
06:20PM 42.7664 -74.1794 126° Southeast 312 359 7,500 -1,500 Descending Boston Center
06:21PM 42.7117 -74.0819 127° Southeast 302 348 5,900 -1,500 Descending Boston Center
06:22PM 42.6689 -74.0044 127° Southeast 297 342 4,500 -1,320 Descending Boston Center
06:23PM 42.6453 -73.9078 108° East 285 328 3,300 -1,140 Descending Boston Center
06:24PM 42.6358 -73.8203 98° East 258 297 2,300 -1,020 Descending Boston Center